Chicago, Illinois
Traffic Map
Current Weather Conditions
Chicago, Illinois
Scattered Clouds
Scattered Clouds
31°
Feels Like: 32°
Wind Chill: 31° Ceiling: Unl
Heat Index: 32° Visibility: 10mi
Dew Point: 18° Wind: 15mph
Humidity: 46% Direction: 320° (NW)
Pressure: 29.97in Gusts: 21mph
Raw Report DataKMDW 262053Z 32013G18KT 10SM FEW042 FEW150 SCT250 31/18 A2997 RMK AO2 SLP135 T03110183 58015
Traffic Incident Summary
Active as of:
Severity:
Category:
InformationThere was an issue retrieving the traffic information for this location. Please try a different location or try again shortly.
Advertisements
Track Severe Weather on mobile